createdAt,value
2023-04-13T00:00:35.188Z,3.30
2023-04-13T00:03:12.193Z,3.70
2023-04-13T00:05:42.449Z,4.47
2023-04-13T00:08:10.842Z,4.45
2023-04-13T00:10:41.940Z,4.10
2023-04-13T00:13:11.917Z,3.63
2023-04-13T00:15:44.210Z,4.55
2023-04-13T00:18:12.918Z,4.05
2023-04-13T00:20:43.452Z,4.65
2023-04-13T00:23:12.383Z,4.22
2023-04-13T00:25:42.081Z,3.88
2023-04-13T00:28:10.528Z,3.93
2023-04-13T00:30:39.163Z,4.35
2023-04-13T00:33:07.562Z,4.78
2023-04-13T00:35:35.882Z,5.70
2023-04-13T00:38:04.503Z,6.88
2023-04-13T00:40:33.265Z,6.78
2023-04-13T00:43:03.036Z,4.70
2023-04-13T00:45:31.495Z,4.33
2023-04-13T00:48:00.396Z,4.10
2023-04-13T00:50:29.478Z,3.90
2023-04-13T00:52:58.256Z,3.95
2023-04-13T00:55:27.751Z,4.43
2023-04-13T00:57:57.954Z,4.15
2023-04-13T01:00:27.881Z,3.75
2023-04-13T01:02:57.299Z,4.50
2023-04-13T01:05:29.556Z,3.80
2023-04-13T01:08:09.798Z,3.70
2023-04-13T01:10:44.767Z,3.95
2023-04-13T01:13:22.673Z,4.55
2023-04-13T01:16:03.767Z,4.82
2023-04-13T01:21:14.276Z,4.65
2023-04-13T01:23:57.826Z,4.93
2023-04-13T01:26:38.762Z,4.70
2023-04-13T01:29:08.666Z,5.30
2023-04-13T01:31:37.839Z,4.18
2023-04-13T01:34:06.250Z,5.03
2023-04-13T01:36:35.197Z,4.97
2023-04-13T01:39:04.334Z,4.38
2023-04-13T01:41:33.638Z,4.50
2023-04-13T01:44:02.505Z,4.30
2023-04-13T01:46:37.589Z,4.07
2023-04-13T01:49:19.691Z,4.38
2023-04-13T01:52:12.126Z,4.63
2023-04-13T01:54:45.729Z,4.32
2023-04-13T01:57:15.928Z,4.38
2023-04-13T01:59:45.254Z,5.20
2023-04-13T02:02:19.609Z,4.65
2023-04-13T02:04:48.578Z,4.40
2023-04-13T02:07:17.536Z,4.38
2023-04-13T02:09:50.321Z,4.03
2023-04-13T02:12:19.139Z,4.32
2023-04-13T02:14:47.388Z,4.65
2023-04-13T02:17:15.741Z,5.05
2023-04-13T02:19:46.201Z,5.05
2023-04-13T02:22:16.306Z,5.35
2023-04-13T02:24:44.618Z,5.47
2023-04-13T02:27:13.176Z,5.53
2023-04-13T02:29:41.663Z,5.00
2023-04-13T02:32:10.066Z,5.07
2023-04-13T02:34:38.886Z,4.63
2023-04-13T02:37:09.519Z,4.93
2023-04-13T02:39:38.448Z,4.70
2023-04-13T02:42:08.444Z,5.15
2023-04-13T02:44:38.647Z,5.03
2023-04-13T02:47:07.622Z,4.72
2023-04-13T02:49:37.557Z,4.85
2023-04-13T02:52:21.571Z,5.47
2023-04-13T02:55:05.067Z,5.10
2023-04-13T02:57:45.410Z,5.05
2023-04-13T03:00:16.965Z,5.57
2023-04-13T03:05:28.978Z,5.35
2023-04-13T03:07:59.344Z,5.20
2023-04-13T03:10:31.104Z,4.97
2023-04-13T03:13:01.266Z,5.10
2023-04-13T03:15:30.703Z,5.68
2023-04-13T03:18:00.587Z,5.75
2023-04-13T03:20:31.265Z,5.50
2023-04-13T03:23:05.809Z,5.40
2023-04-13T03:25:36.926Z,5.50
2023-04-13T03:28:06.455Z,5.20
2023-04-13T03:30:41.026Z,5.10
2023-04-13T03:33:09.358Z,4.93
2023-04-13T03:35:39.884Z,5.25
2023-04-13T03:38:16.715Z,4.88
2023-04-13T03:40:47.862Z,5.32
2023-04-13T03:43:16.724Z,5.07
2023-04-13T03:45:50.958Z,5.07
2023-04-13T03:48:20.847Z,4.90
2023-04-13T03:50:49.118Z,5.72
2023-04-13T03:53:22.827Z,5.28
2023-04-13T03:55:54.339Z,4.68
2023-04-13T03:58:23.839Z,5.07
2023-04-13T04:00:52.992Z,5.80
2023-04-13T04:03:35.863Z,5.03
2023-04-13T04:06:10.034Z,4.97
2023-04-13T04:08:43.940Z,4.90
2023-04-13T04:11:23.894Z,5.50
2023-04-13T04:13:52.997Z,4.82
2023-04-13T04:16:21.351Z,4.68
2023-04-13T04:18:55.226Z,5.05
2023-04-13T04:21:23.600Z,5.32
2023-04-13T04:23:53.311Z,5.00
2023-04-13T04:26:25.718Z,4.63
2023-04-13T04:29:03.057Z,4.13
2023-04-13T04:31:37.106Z,4.47
2023-04-13T04:34:10.560Z,4.32
2023-04-13T04:36:42.042Z,4.63
2023-04-13T04:39:14.377Z,4.63
2023-04-13T04:41:54.230Z,4.18
2023-04-13T04:44:25.320Z,4.85
2023-04-13T04:46:55.282Z,4.68
2023-04-13T04:49:23.854Z,4.72
2023-04-13T04:51:53.032Z,4.88
2023-04-13T04:54:23.465Z,4.00
2023-04-13T04:56:52.768Z,3.92
2023-04-13T04:59:22.157Z,4.82
2023-04-13T05:01:58.506Z,4.63
2023-04-13T05:04:26.957Z,3.90
2023-04-13T05:06:55.377Z,4.40
2023-04-13T05:09:28.128Z,4.55
2023-04-13T05:11:58.161Z,4.70
2023-04-13T05:14:26.660Z,5.30
2023-04-13T05:16:55.654Z,5.18
2023-04-13T05:19:27.905Z,5.40
2023-04-13T05:22:25.605Z,5.05
2023-04-13T05:25:01.832Z,5.90
2023-04-13T05:27:31.639Z,5.65
2023-04-13T05:30:00.071Z,5.55
2023-04-13T05:32:28.674Z,6.07
2023-04-13T05:35:00.455Z,6.40
2023-04-13T05:37:29.028Z,6.10
2023-04-13T05:39:57.719Z,6.15
2023-04-13T05:42:34.004Z,5.50
2023-04-13T05:47:32.624Z,6.22
2023-04-13T05:50:10.583Z,5.93
2023-04-13T05:52:38.888Z,5.63
2023-04-13T05:55:07.952Z,6.30
2023-04-13T05:57:38.307Z,5.57
2023-04-13T06:00:14.075Z,6.05
2023-04-13T06:02:49.230Z,6.07
2023-04-13T06:05:18.356Z,5.97
2023-04-13T06:07:47.837Z,6.07
2023-04-13T06:10:16.764Z,5.95
2023-04-13T06:12:48.896Z,5.57
2023-04-13T06:15:18.377Z,5.25
2023-04-13T06:17:46.797Z,6.30
2023-04-13T06:20:15.667Z,5.78
2023-04-13T06:22:44.018Z,6.03
2023-04-13T06:25:13.762Z,6.22
2023-04-13T06:27:44.456Z,6.32
2023-04-13T06:30:14.891Z,5.60
2023-04-13T06:32:44.314Z,6.75
2023-04-13T06:35:13.382Z,6.68
2023-04-13T06:37:46.523Z,6.40
2023-04-13T06:40:21.095Z,6.28
2023-04-13T06:43:08.933Z,6.03
2023-04-13T06:46:06.963Z,6.70
2023-04-13T06:48:45.098Z,7.13
2023-04-13T06:51:18.932Z,6.90
2023-04-13T06:53:48.614Z,6.80
2023-04-13T06:56:17.131Z,7.25
2023-04-13T06:58:46.553Z,7.40
2023-04-13T07:01:16.406Z,6.28
2023-04-13T07:03:46.616Z,5.82
2023-04-13T07:08:45.167Z,6.45
2023-04-13T07:11:14.427Z,6.78
2023-04-13T07:13:43.630Z,6.20
2023-04-13T07:16:16.184Z,6.95
2023-04-13T07:18:47.514Z,7.20
2023-04-13T07:21:16.104Z,6.20
2023-04-13T07:24:16.921Z,6.25
2023-04-13T07:26:46.905Z,6.68
2023-04-13T07:29:17.245Z,6.15
2023-04-13T07:31:52.754Z,5.20
2023-04-13T07:34:21.932Z,5.93
2023-04-13T07:36:51.436Z,5.43
2023-04-13T07:39:22.465Z,5.57
2023-04-13T07:41:53.286Z,6.15
2023-04-13T07:44:36.502Z,6.25
2023-04-13T07:47:06.976Z,5.65
2023-04-13T07:49:38.588Z,6.18
2023-04-13T07:52:11.290Z,6.40
2023-04-13T07:54:41.392Z,5.80
2023-04-13T07:57:12.016Z,6.75
2023-04-13T07:59:46.029Z,6.07
2023-04-13T08:02:18.368Z,6.70
2023-04-13T08:04:50.306Z,6.32
2023-04-13T08:07:23.772Z,5.88
2023-04-13T08:09:52.776Z,5.60
2023-04-13T08:12:22.979Z,5.93
2023-04-13T08:14:53.133Z,7.35
2023-04-13T08:17:23.088Z,5.43
2023-04-13T08:19:52.510Z,6.65
2023-04-13T08:22:21.279Z,6.03
2023-04-13T08:24:49.704Z,5.95
2023-04-13T08:27:19.385Z,6.13
2023-04-13T08:29:47.708Z,6.30
2023-04-13T08:32:16.869Z,6.20
2023-04-13T08:34:46.886Z,6.65
2023-04-13T08:37:17.928Z,5.40
2023-04-13T08:39:48.315Z,5.50
2023-04-13T08:42:21.631Z,5.97
2023-04-13T08:44:52.779Z,5.25
2023-04-13T08:47:21.201Z,6.30
2023-04-13T08:49:52.155Z,5.80
2023-04-13T08:52:32.666Z,5.85
2023-04-13T08:55:02.387Z,5.65
2023-04-13T08:57:34.769Z,6.38
2023-04-13T09:00:10.286Z,6.22
2023-04-13T09:02:56.024Z,6.38
2023-04-13T09:05:34.110Z,5.18
2023-04-13T09:08:08.037Z,6.15
2023-04-13T09:10:38.740Z,6.05
2023-04-13T09:13:09.487Z,5.70
2023-04-13T09:15:38.882Z,6.15
2023-04-13T09:18:20.557Z,6.78
2023-04-13T09:21:00.918Z,5.82
2023-04-13T09:23:29.306Z,5.82
2023-04-13T09:26:08.184Z,6.07
2023-04-13T09:28:48.143Z,5.47
2023-04-13T09:31:16.938Z,6.03
2023-04-13T09:33:46.777Z,6.25
2023-04-13T09:36:18.568Z,6.35
2023-04-13T09:38:52.165Z,5.97
2023-04-13T09:41:34.293Z,5.38
2023-04-13T09:44:04.028Z,5.70
2023-04-13T09:46:32.643Z,5.80
2023-04-13T09:49:03.556Z,5.97
2023-04-13T09:51:42.194Z,5.65
2023-04-13T09:54:12.574Z,6.25
2023-04-13T09:56:47.011Z,6.40
2023-04-13T09:59:15.810Z,6.00
2023-04-13T10:01:45.247Z,5.57
2023-04-13T10:04:13.898Z,7.05
2023-04-13T10:06:44.915Z,5.97
2023-04-13T10:09:13.549Z,5.53
2023-04-13T10:11:46.727Z,5.60
2023-04-13T10:14:19.255Z,5.65
2023-04-13T10:17:20.183Z,6.65
2023-04-13T10:22:22.812Z,5.65
2023-04-13T10:24:53.409Z,5.97
2023-04-13T10:27:23.789Z,5.82
2023-04-13T10:29:52.261Z,5.72
2023-04-13T10:32:27.437Z,5.47
2023-04-13T10:34:56.873Z,5.82
2023-04-13T10:37:30.000Z,5.95
2023-04-13T10:40:07.926Z,5.78
2023-04-13T10:45:21.327Z,6.00
2023-04-13T10:47:49.985Z,5.45
2023-04-13T10:50:21.061Z,6.68
2023-04-13T10:53:03.210Z,6.05
2023-04-13T10:55:31.958Z,6.85
2023-04-13T10:58:02.111Z,5.20
2023-04-13T11:00:45.524Z,6.07
2023-04-13T11:03:17.846Z,6.53
2023-04-13T11:05:47.419Z,5.90
2023-04-13T11:08:21.817Z,6.68
2023-04-13T11:10:53.950Z,6.13
2023-04-13T11:13:25.089Z,5.60
2023-04-13T11:16:02.397Z,6.22
2023-04-13T11:18:30.859Z,6.00
2023-04-13T11:20:59.438Z,5.93
2023-04-13T11:23:34.434Z,5.68
2023-04-13T11:26:04.637Z,6.40
2023-04-13T11:28:40.263Z,5.80
2023-04-13T11:31:08.875Z,4.85
2023-04-13T11:33:39.929Z,5.38
2023-04-13T11:36:11.885Z,6.07
2023-04-13T11:38:42.742Z,5.63
2023-04-13T11:43:42.984Z,5.35
2023-04-13T11:46:13.714Z,5.32
2023-04-13T11:48:43.189Z,5.20
2023-04-13T11:51:12.144Z,5.65
2023-04-13T11:53:42.351Z,5.72
2023-04-13T11:56:11.548Z,5.78
2023-04-13T11:58:40.479Z,5.57
2023-04-13T12:01:14.318Z,5.28
2023-04-13T12:06:17.560Z,6.20
2023-04-13T12:08:52.615Z,5.20
2023-04-13T12:11:41.186Z,5.05
2023-04-13T12:19:27.482Z,6.47
2023-04-13T12:21:57.569Z,5.40
2023-04-13T12:24:37.800Z,5.68
2023-04-13T12:29:42.192Z,5.40
2023-04-13T12:32:15.428Z,5.82
2023-04-13T12:34:44.804Z,5.65
2023-04-13T12:37:14.830Z,5.90
2023-04-13T12:39:44.968Z,6.20
2023-04-13T12:42:13.508Z,6.20
2023-04-13T12:44:41.822Z,5.53
2023-04-13T12:47:10.258Z,5.45
2023-04-13T12:49:38.595Z,6.20
2023-04-13T12:52:07.076Z,5.97
2023-04-13T12:54:35.387Z,6.05
2023-04-13T12:57:05.231Z,5.60
2023-04-13T12:59:33.544Z,6.80
2023-04-13T13:02:02.173Z,6.15
2023-04-13T13:04:30.793Z,6.07
2023-04-13T13:07:00.507Z,5.15
2023-04-13T13:09:29.199Z,5.43
2023-04-13T13:11:58.032Z,7.40
2023-04-13T13:14:28.340Z,5.50
2023-04-13T13:16:56.838Z,5.53
2023-04-13T13:19:25.226Z,5.07
2023-04-13T13:21:53.529Z,5.45
2023-04-13T13:24:21.842Z,5.40
2023-04-13T13:27:17.016Z,5.13
2023-04-13T13:29:40.655Z,5.72
2023-04-13T13:32:10.409Z,5.63
2023-04-13T13:34:38.778Z,5.65
2023-04-13T13:37:07.323Z,5.25
2023-04-13T13:39:35.785Z,5.97
2023-04-13T13:42:04.545Z,5.63
2023-04-13T13:44:34.345Z,5.20
2023-04-13T13:47:05.001Z,5.60
2023-04-13T13:49:33.743Z,4.80
2023-04-13T13:52:20.282Z,5.97
2023-04-13T13:54:54.543Z,5.80
2023-04-13T13:57:22.877Z,5.82
2023-04-13T13:59:51.346Z,7.15
2023-04-13T14:02:21.515Z,5.03
2023-04-13T14:04:49.841Z,6.20
2023-04-13T14:07:18.127Z,5.57
2023-04-13T14:09:46.978Z,5.93
2023-04-13T14:12:15.424Z,5.70
2023-04-13T14:14:43.746Z,5.95
2023-04-13T14:17:12.150Z,6.07
2023-04-13T14:19:41.874Z,5.97
2023-04-13T14:22:10.216Z,6.72
2023-04-13T14:24:46.684Z,5.90
2023-04-13T14:27:15.321Z,5.67
2023-04-13T14:29:43.656Z,5.35
2023-04-13T14:32:12.038Z,5.70
2023-04-13T14:34:40.388Z,5.60
2023-04-13T14:37:10.038Z,5.78
2023-04-13T14:39:38.407Z,5.55
2023-04-13T14:42:08.782Z,5.88
2023-04-13T14:44:37.219Z,6.18
2023-04-13T14:47:08.754Z,6.32
2023-04-13T14:49:38.059Z,5.63
2023-04-13T14:52:07.252Z,5.75
2023-04-13T14:54:36.480Z,6.05
2023-04-13T14:57:05.053Z,6.05
2023-04-13T14:59:34.779Z,6.28
2023-04-13T15:02:03.288Z,6.10
2023-04-13T15:04:32.358Z,6.10
2023-04-13T15:07:01.446Z,5.90
2023-04-13T15:09:30.072Z,5.32
2023-04-13T15:11:58.411Z,5.75
2023-04-13T15:14:26.889Z,5.78
2023-04-13T15:16:56.625Z,5.53
2023-04-13T15:19:25.199Z,5.90
2023-04-13T15:21:53.560Z,5.70
2023-04-13T15:24:21.918Z,6.28
2023-04-13T15:26:50.501Z,5.63
2023-04-13T15:29:18.864Z,5.45
2023-04-13T15:31:47.185Z,6.28
2023-04-13T15:34:16.982Z,6.28
2023-04-13T15:36:45.350Z,5.50
2023-04-13T15:39:13.824Z,5.60
2023-04-13T15:41:42.152Z,5.68
2023-04-13T15:44:10.762Z,5.55
2023-04-13T15:46:40.135Z,5.03
2023-04-13T15:49:08.446Z,5.13
2023-04-13T15:51:38.632Z,4.95
2023-04-13T15:54:07.193Z,5.40
2023-04-13T15:56:35.546Z,5.55
2023-04-13T15:59:04.076Z,6.35
2023-04-13T16:01:45.850Z,6.07
2023-04-13T16:04:14.512Z,6.32
2023-04-13T16:06:44.471Z,5.43
2023-04-13T16:09:12.834Z,5.40
2023-04-13T16:11:42.223Z,5.78
2023-04-13T16:14:10.904Z,5.35
2023-04-13T16:16:46.588Z,6.30
2023-04-13T16:19:18.030Z,5.63
2023-04-13T16:21:50.846Z,5.95
2023-04-13T16:24:21.024Z,6.47
2023-04-13T16:26:49.440Z,6.00
2023-04-13T16:29:18.033Z,5.53
2023-04-13T16:31:48.224Z,6.18
2023-04-13T16:34:25.572Z,6.75
2023-04-13T16:36:57.443Z,6.18
2023-04-13T16:41:54.197Z,6.38
2023-04-13T16:44:22.612Z,6.03
2023-04-13T16:46:51.245Z,7.03
2023-04-13T16:49:19.717Z,6.80
2023-04-13T16:51:48.529Z,6.95
2023-04-13T16:54:19.300Z,5.88
2023-04-13T16:59:16.204Z,6.30
2023-04-13T17:01:44.657Z,5.82
2023-04-13T17:04:13.748Z,6.00
2023-04-13T17:06:42.274Z,6.55
2023-04-13T17:09:11.306Z,6.40
2023-04-13T17:11:41.915Z,6.53
2023-04-13T17:14:10.628Z,6.65
2023-04-13T17:16:38.929Z,6.35
2023-04-13T17:19:07.393Z,6.35
2023-04-13T17:21:35.780Z,6.47
2023-04-13T17:24:04.556Z,7.90
2023-04-13T17:26:33.292Z,7.43
2023-04-13T17:29:03.118Z,6.78
2023-04-13T17:31:31.525Z,6.47
2023-04-13T17:33:59.827Z,6.97
2023-04-13T17:36:28.455Z,6.25
2023-04-13T17:38:56.841Z,6.25
2023-04-13T17:41:25.170Z,6.05
2023-04-13T17:43:53.491Z,5.97
2023-04-13T17:46:23.215Z,7.03
2023-04-13T17:48:51.607Z,6.17
2023-04-13T17:51:19.982Z,5.70
2023-04-13T17:53:48.373Z,5.60
2023-04-13T17:56:17.687Z,6.00
2023-04-13T17:58:46.780Z,6.15
2023-04-13T18:01:15.241Z,5.95
2023-04-13T18:03:45.454Z,5.82
2023-04-13T18:06:14.019Z,6.43
2023-04-13T18:08:42.302Z,6.15
2023-04-13T18:11:11.999Z,6.20
2023-04-13T18:13:41.267Z,5.78
2023-04-13T18:16:11.755Z,6.63
2023-04-13T18:18:41.880Z,6.22
2023-04-13T18:21:11.638Z,6.97
2023-04-13T18:23:40.074Z,6.80
2023-04-13T18:26:08.511Z,7.43
2023-04-13T18:28:37.471Z,6.35
2023-04-13T18:31:07.115Z,6.30
2023-04-13T18:33:35.479Z,7.28
2023-04-13T18:36:03.748Z,6.18
2023-04-13T18:38:34.803Z,6.15
2023-04-13T18:41:03.283Z,6.88
2023-04-13T18:43:31.633Z,6.82
2023-04-13T18:46:01.465Z,6.68
2023-04-13T18:48:30.787Z,6.00
2023-04-13T18:50:59.122Z,6.03
2023-04-13T18:53:28.475Z,6.28
2023-04-13T18:55:59.796Z,6.20
2023-04-13T18:58:28.256Z,5.90
2023-04-13T19:00:56.999Z,6.00
2023-04-13T19:03:25.514Z,6.28
2023-04-13T19:05:53.955Z,5.47
2023-04-13T19:08:22.370Z,6.07
2023-04-13T19:10:50.783Z,5.70
2023-04-13T19:13:20.604Z,5.13
2023-04-13T19:15:49.461Z,5.37
2023-04-13T19:18:18.197Z,5.40
2023-04-13T19:20:46.566Z,5.30
2023-04-13T19:23:14.877Z,5.10
2023-04-13T19:25:43.199Z,5.32
2023-04-13T19:28:11.780Z,6.20
2023-04-13T19:30:41.511Z,4.93
2023-04-13T19:33:09.979Z,6.72
2023-04-13T19:35:38.454Z,6.63
2023-04-13T19:38:06.791Z,5.60
2023-04-13T19:40:35.612Z,6.20
2023-04-13T19:43:04.316Z,5.70
2023-04-13T19:45:32.772Z,5.10
2023-04-13T19:48:02.680Z,5.57
2023-04-13T19:50:31.375Z,5.13
2023-04-13T19:52:59.702Z,4.80
2023-04-13T19:55:28.419Z,4.80
2023-04-13T19:57:56.773Z,4.97
2023-04-13T20:00:28.153Z,5.25
2023-04-13T20:03:02.682Z,4.97
2023-04-13T20:05:32.812Z,5.03
2023-04-13T20:08:01.320Z,5.43
2023-04-13T20:10:29.562Z,5.05
2023-04-13T20:12:57.896Z,5.78
2023-04-13T20:15:26.409Z,5.03
2023-04-13T20:17:54.832Z,5.75
2023-04-13T20:20:24.472Z,5.28
2023-04-13T20:22:54.154Z,5.38
2023-04-13T20:25:22.587Z,5.95
2023-04-13T20:27:51.088Z,5.88
2023-04-13T20:30:19.775Z,5.82
2023-04-13T20:32:48.353Z,5.82
2023-04-13T20:35:17.001Z,5.75
2023-04-13T20:37:45.414Z,6.28
2023-04-13T20:40:15.204Z,6.15
2023-04-13T20:42:44.320Z,5.90
2023-04-13T20:45:14.911Z,7.00
2023-04-13T20:47:43.543Z,5.38
2023-04-13T20:50:13.109Z,6.15
2023-04-13T20:52:42.647Z,6.30
2023-04-13T20:55:11.686Z,5.88
2023-04-13T20:57:42.181Z,5.53
2023-04-13T21:02:44.967Z,5.32
2023-04-13T21:05:13.830Z,5.18
2023-04-13T21:07:42.371Z,5.57
2023-04-13T21:10:12.161Z,5.78
2023-04-13T21:12:44.275Z,5.40
2023-04-13T21:15:13.363Z,5.63
2023-04-13T21:17:41.725Z,5.80
2023-04-13T21:20:11.980Z,5.25
2023-04-13T21:22:40.500Z,6.22
2023-04-13T21:25:09.419Z,5.97
2023-04-13T21:27:37.851Z,6.07
2023-04-13T21:30:09.477Z,5.53
2023-04-13T21:32:37.971Z,5.68
2023-04-13T21:35:07.767Z,6.15
2023-04-13T21:37:36.215Z,5.72
2023-04-13T21:40:05.125Z,7.65
2023-04-13T21:42:33.489Z,10.70
2023-04-13T21:45:01.837Z,8.50
2023-04-13T21:47:31.710Z,8.82
2023-04-13T21:50:00.244Z,6.63
2023-04-13T21:52:30.130Z,6.60
2023-04-13T21:54:59.798Z,6.05
2023-04-13T21:57:28.511Z,6.40
2023-04-13T21:59:57.366Z,5.82
2023-04-13T22:02:26.304Z,6.32
2023-04-13T22:04:56.125Z,6.57
2023-04-13T22:07:39.046Z,7.57
2023-04-13T22:10:11.447Z,7.85
2023-04-13T22:12:39.832Z,7.38
2023-04-13T22:15:09.526Z,7.32
2023-04-13T22:17:37.868Z,7.65
2023-04-13T22:20:09.667Z,9.02
2023-04-13T22:22:37.989Z,7.80
2023-04-13T22:25:07.256Z,8.40
2023-04-13T22:27:37.701Z,7.85
2023-04-13T22:30:08.038Z,8.63
2023-04-13T22:32:39.518Z,7.90
2023-04-13T22:35:11.122Z,8.10
2023-04-13T22:37:39.483Z,8.77
2023-04-13T22:40:09.527Z,9.70
2023-04-13T22:42:37.890Z,10.65
2023-04-13T22:45:07.506Z,12.15
2023-04-13T22:47:36.407Z,12.70
2023-04-13T22:50:05.088Z,12.98
2023-04-13T22:52:34.830Z,10.23
2023-04-13T22:55:03.225Z,10.37
2023-04-13T22:57:31.542Z,11.98
2023-04-13T22:59:59.832Z,9.10
2023-04-13T23:02:28.456Z,8.60
2023-04-13T23:04:57.121Z,7.82
2023-04-13T23:07:25.880Z,5.90
2023-04-13T23:09:55.557Z,5.95
2023-04-13T23:12:23.901Z,6.13
2023-04-13T23:14:53.288Z,5.63
2023-04-13T23:17:21.748Z,6.00
2023-04-13T23:19:50.064Z,5.55
2023-04-13T23:22:18.391Z,5.88
2023-04-13T23:24:46.668Z,6.43
2023-04-13T23:27:16.517Z,6.70
2023-04-13T23:29:45.678Z,5.72
2023-04-13T23:32:14.115Z,6.75
2023-04-13T23:34:42.421Z,5.93
2023-04-13T23:37:10.795Z,6.20
2023-04-13T23:39:39.197Z,6.13
2023-04-13T23:42:08.493Z,6.03
2023-04-13T23:44:38.108Z,6.15
2023-04-13T23:47:07.111Z,6.60
2023-04-13T23:49:35.467Z,6.50
2023-04-13T23:52:03.841Z,5.55
2023-04-13T23:54:32.378Z,5.85
2023-04-13T23:57:01.590Z,6.60
2023-04-13T23:59:30.462Z,5.90
